sensor_id;sensor_type;location;lat;lon;timestamp;P1;durP1;ratioP1;P2;durP2;ratioP2
12224;SDS011;6175;50.956;11.064;2023-02-02T00:00:46;4.65;;;1.95;;
12224;SDS011;6175;50.956;11.064;2023-02-02T00:03:14;4.30;;;2.28;;
12224;SDS011;6175;50.956;11.064;2023-02-02T00:05:45;6.88;;;2.58;;
12224;SDS011;6175;50.956;11.064;2023-02-02T00:08:13;4.70;;;2.00;;
12224;SDS011;6175;50.956;11.064;2023-02-02T00:10:40;4.80;;;2.40;;
12224;SDS011;6175;50.956;11.064;2023-02-02T00:13:07;5.13;;;2.65;;
12224;SDS011;6175;50.956;11.064;2023-02-02T00:15:34;3.42;;;2.08;;
12224;SDS011;6175;50.956;11.064;2023-02-02T00:18:02;4.93;;;2.03;;
12224;SDS011;6175;50.956;11.064;2023-02-02T00:20:30;4.30;;;1.93;;
12224;SDS011;6175;50.956;11.064;2023-02-02T00:22:58;4.10;;;1.98;;
12224;SDS011;6175;50.956;11.064;2023-02-02T00:25:25;3.72;;;2.30;;
12224;SDS011;6175;50.956;11.064;2023-02-02T00:27:54;3.22;;;2.30;;
12224;SDS011;6175;50.956;11.064;2023-02-02T00:30:21;2.80;;;1.97;;
12224;SDS011;6175;50.956;11.064;2023-02-02T00:32:48;2.30;;;1.98;;
12224;SDS011;6175;50.956;11.064;2023-02-02T00:35:17;3.08;;;2.25;;
12224;SDS011;6175;50.956;11.064;2023-02-02T00:37:45;2.50;;;1.80;;
12224;SDS011;6175;50.956;11.064;2023-02-02T00:40:12;7.70;;;2.50;;
12224;SDS011;6175;50.956;11.064;2023-02-02T00:42:39;3.90;;;1.83;;
12224;SDS011;6175;50.956;11.064;2023-02-02T00:45:08;6.88;;;2.50;;
12224;SDS011;6175;50.956;11.064;2023-02-02T00:47:41;5.00;;;1.98;;
12224;SDS011;6175;50.956;11.064;2023-02-02T00:50:09;4.37;;;2.20;;
12224;SDS011;6175;50.956;11.064;2023-02-02T00:52:38;4.47;;;2.45;;
12224;SDS011;6175;50.956;11.064;2023-02-02T00:55:07;4.47;;;2.50;;
12224;SDS011;6175;50.956;11.064;2023-02-02T00:57:35;5.97;;;2.30;;
12224;SDS011;6175;50.956;11.064;2023-02-02T01:00:02;2.67;;;2.17;;
12224;SDS011;6175;50.956;11.064;2023-02-02T01:02:33;3.17;;;2.07;;
12224;SDS011;6175;50.956;11.064;2023-02-02T01:05:00;3.58;;;2.00;;
12224;SDS011;6175;50.956;11.064;2023-02-02T01:07:27;3.15;;;2.00;;
12224;SDS011;6175;50.956;11.064;2023-02-02T01:09:55;5.20;;;1.90;;
12224;SDS011;6175;50.956;11.064;2023-02-02T01:12:23;3.40;;;2.30;;
12224;SDS011;6175;50.956;11.064;2023-02-02T01:14:51;4.30;;;2.70;;
12224;SDS011;6175;50.956;11.064;2023-02-02T01:17:18;2.13;;;1.83;;
12224;SDS011;6175;50.956;11.064;2023-02-02T01:19:45;3.77;;;1.77;;
12224;SDS011;6175;50.956;11.064;2023-02-02T01:22:12;4.87;;;2.23;;
12224;SDS011;6175;50.956;11.064;2023-02-02T01:24:39;4.67;;;2.00;;
12224;SDS011;6175;50.956;11.064;2023-02-02T01:27:06;6.10;;;2.40;;
12224;SDS011;6175;50.956;11.064;2023-02-02T01:29:34;4.30;;;2.10;;
12224;SDS011;6175;50.956;11.064;2023-02-02T01:32:01;3.03;;;2.00;;
12224;SDS011;6175;50.956;11.064;2023-02-02T01:34:28;4.43;;;2.03;;
12224;SDS011;6175;50.956;11.064;2023-02-02T01:36:55;3.63;;;2.22;;
12224;SDS011;6175;50.956;11.064;2023-02-02T01:39:22;3.03;;;1.67;;
12224;SDS011;6175;50.956;11.064;2023-02-02T01:41:49;3.67;;;1.80;;
12224;SDS011;6175;50.956;11.064;2023-02-02T01:47:23;2.53;;;1.52;;
12224;SDS011;6175;50.956;11.064;2023-02-02T01:49:51;6.82;;;2.35;;
12224;SDS011;6175;50.956;11.064;2023-02-02T01:52:21;6.03;;;2.33;;
12224;SDS011;6175;50.956;11.064;2023-02-02T01:54:51;5.27;;;1.90;;
12224;SDS011;6175;50.956;11.064;2023-02-02T01:57:22;5.68;;;2.45;;
12224;SDS011;6175;50.956;11.064;2023-02-02T01:59:53;4.68;;;2.30;;
12224;SDS011;6175;50.956;11.064;2023-02-02T02:02:22;3.75;;;2.13;;
12224;SDS011;6175;50.956;11.064;2023-02-02T02:04:50;6.63;;;2.17;;
12224;SDS011;6175;50.956;11.064;2023-02-02T02:07:18;3.33;;;2.05;;
12224;SDS011;6175;50.956;11.064;2023-02-02T02:09:45;3.90;;;2.30;;
12224;SDS011;6175;50.956;11.064;2023-02-02T02:12:13;4.68;;;2.00;;
12224;SDS011;6175;50.956;11.064;2023-02-02T02:14:41;5.15;;;2.22;;
12224;SDS011;6175;50.956;11.064;2023-02-02T02:20:28;3.30;;;2.13;;
12224;SDS011;6175;50.956;11.064;2023-02-02T02:23:43;3.10;;;1.77;;
12224;SDS011;6175;50.956;11.064;2023-02-02T02:26:50;4.93;;;2.17;;
12224;SDS011;6175;50.956;11.064;2023-02-02T02:29:37;5.43;;;2.30;;
12224;SDS011;6175;50.956;11.064;2023-02-02T02:32:28;5.37;;;2.30;;
12224;SDS011;6175;50.956;11.064;2023-02-02T02:35:01;4.72;;;2.38;;
12224;SDS011;6175;50.956;11.064;2023-02-02T02:37:36;5.75;;;2.60;;
12224;SDS011;6175;50.956;11.064;2023-02-02T02:40:10;6.75;;;2.97;;
12224;SDS011;6175;50.956;11.064;2023-02-02T02:42:46;5.80;;;2.25;;
12224;SDS011;6175;50.956;11.064;2023-02-02T02:45:17;5.63;;;2.57;;
12224;SDS011;6175;50.956;11.064;2023-02-02T02:47:46;4.18;;;2.28;;
12224;SDS011;6175;50.956;11.064;2023-02-02T02:50:15;5.47;;;1.87;;
12224;SDS011;6175;50.956;11.064;2023-02-02T02:52:42;5.15;;;2.05;;
12224;SDS011;6175;50.956;11.064;2023-02-02T02:55:11;6.03;;;2.35;;
12224;SDS011;6175;50.956;11.064;2023-02-02T02:57:41;6.95;;;2.08;;
12224;SDS011;6175;50.956;11.064;2023-02-02T03:00:22;3.90;;;2.55;;
12224;SDS011;6175;50.956;11.064;2023-02-02T03:03:04;4.88;;;2.33;;
12224;SDS011;6175;50.956;11.064;2023-02-02T03:05:38;3.33;;;1.90;;
12224;SDS011;6175;50.956;11.064;2023-02-02T03:08:15;5.57;;;2.17;;
12224;SDS011;6175;50.956;11.064;2023-02-02T03:10:46;6.43;;;2.20;;
12224;SDS011;6175;50.956;11.064;2023-02-02T03:13:13;5.38;;;2.17;;
12224;SDS011;6175;50.956;11.064;2023-02-02T03:15:42;4.03;;;1.70;;
12224;SDS011;6175;50.956;11.064;2023-02-02T03:18:11;4.63;;;2.05;;
12224;SDS011;6175;50.956;11.064;2023-02-02T03:20:40;6.23;;;2.30;;
12224;SDS011;6175;50.956;11.064;2023-02-02T03:23:09;5.13;;;1.90;;
12224;SDS011;6175;50.956;11.064;2023-02-02T03:25:36;4.00;;;1.95;;
12224;SDS011;6175;50.956;11.064;2023-02-02T03:28:03;3.40;;;2.10;;
12224;SDS011;6175;50.956;11.064;2023-02-02T03:30:30;6.50;;;1.92;;
12224;SDS011;6175;50.956;11.064;2023-02-02T03:32:58;6.53;;;2.10;;
12224;SDS011;6175;50.956;11.064;2023-02-02T03:35:26;4.57;;;2.22;;
12224;SDS011;6175;50.956;11.064;2023-02-02T03:37:53;6.70;;;2.03;;
12224;SDS011;6175;50.956;11.064;2023-02-02T03:40:20;4.53;;;2.00;;
12224;SDS011;6175;50.956;11.064;2023-02-02T03:42:47;6.40;;;1.90;;
12224;SDS011;6175;50.956;11.064;2023-02-02T03:45:14;6.00;;;2.10;;
12224;SDS011;6175;50.956;11.064;2023-02-02T03:47:41;3.65;;;2.05;;
12224;SDS011;6175;50.956;11.064;2023-02-02T03:50:08;5.77;;;1.97;;
12224;SDS011;6175;50.956;11.064;2023-02-02T03:52:38;5.33;;;2.13;;
12224;SDS011;6175;50.956;11.064;2023-02-02T03:55:05;5.60;;;2.57;;
12224;SDS011;6175;50.956;11.064;2023-02-02T03:57:32;5.57;;;2.03;;
12224;SDS011;6175;50.956;11.064;2023-02-02T03:59:59;4.95;;;1.98;;
12224;SDS011;6175;50.956;11.064;2023-02-02T04:02:26;5.20;;;2.22;;
12224;SDS011;6175;50.956;11.064;2023-02-02T04:04:53;5.57;;;2.20;;
12224;SDS011;6175;50.956;11.064;2023-02-02T04:07:21;6.40;;;2.40;;
12224;SDS011;6175;50.956;11.064;2023-02-02T04:09:49;6.23;;;2.30;;
12224;SDS011;6175;50.956;11.064;2023-02-02T04:12:17;5.43;;;2.10;;
12224;SDS011;6175;50.956;11.064;2023-02-02T04:14:44;4.55;;;2.30;;
12224;SDS011;6175;50.956;11.064;2023-02-02T04:17:11;6.75;;;2.22;;
12224;SDS011;6175;50.956;11.064;2023-02-02T04:19:40;5.93;;;2.20;;
12224;SDS011;6175;50.956;11.064;2023-02-02T04:22:07;4.68;;;2.13;;
12224;SDS011;6175;50.956;11.064;2023-02-02T04:24:34;6.07;;;2.37;;
12224;SDS011;6175;50.956;11.064;2023-02-02T04:27:03;3.78;;;1.75;;
12224;SDS011;6175;50.956;11.064;2023-02-02T04:29:29;3.58;;;2.10;;
12224;SDS011;6175;50.956;11.064;2023-02-02T04:31:56;4.13;;;1.80;;
12224;SDS011;6175;50.956;11.064;2023-02-02T04:34:23;7.45;;;2.75;;
12224;SDS011;6175;50.956;11.064;2023-02-02T04:36:52;6.32;;;2.28;;
12224;SDS011;6175;50.956;11.064;2023-02-02T04:39:20;6.03;;;1.90;;
12224;SDS011;6175;50.956;11.064;2023-02-02T04:41:47;7.80;;;2.03;;
12224;SDS011;6175;50.956;11.064;2023-02-02T04:44:16;6.13;;;2.40;;
12224;SDS011;6175;50.956;11.064;2023-02-02T04:46:43;7.97;;;2.10;;
12224;SDS011;6175;50.956;11.064;2023-02-02T04:49:10;4.13;;;2.13;;
12224;SDS011;6175;50.956;11.064;2023-02-02T04:51:38;6.10;;;2.03;;
12224;SDS011;6175;50.956;11.064;2023-02-02T04:54:05;7.75;;;2.50;;
12224;SDS011;6175;50.956;11.064;2023-02-02T04:56:33;6.93;;;2.47;;
12224;SDS011;6175;50.956;11.064;2023-02-02T04:59:00;8.10;;;2.10;;
12224;SDS011;6175;50.956;11.064;2023-02-02T05:01:29;5.70;;;2.20;;
12224;SDS011;6175;50.956;11.064;2023-02-02T05:03:56;7.77;;;2.03;;
12224;SDS011;6175;50.956;11.064;2023-02-02T05:06:23;4.63;;;2.17;;
12224;SDS011;6175;50.956;11.064;2023-02-02T05:08:50;5.88;;;2.10;;
12224;SDS011;6175;50.956;11.064;2023-02-02T05:11:18;5.50;;;2.07;;
12224;SDS011;6175;50.956;11.064;2023-02-02T05:13:46;6.07;;;1.60;;
12224;SDS011;6175;50.956;11.064;2023-02-02T05:16:13;3.53;;;1.70;;
12224;SDS011;6175;50.956;11.064;2023-02-02T05:18:42;4.43;;;1.83;;
12224;SDS011;6175;50.956;11.064;2023-02-02T05:21:14;4.93;;;1.77;;
12224;SDS011;6175;50.956;11.064;2023-02-02T05:23:41;7.73;;;2.33;;
12224;SDS011;6175;50.956;11.064;2023-02-02T05:26:10;6.77;;;2.13;;
12224;SDS011;6175;50.956;11.064;2023-02-02T05:28:38;7.38;;;2.45;;
12224;SDS011;6175;50.956;11.064;2023-02-02T05:31:06;6.37;;;2.00;;
12224;SDS011;6175;50.956;11.064;2023-02-02T05:33:34;5.87;;;2.00;;
12224;SDS011;6175;50.956;11.064;2023-02-02T05:36:03;3.05;;;1.63;;
12224;SDS011;6175;50.956;11.064;2023-02-02T05:38:30;6.95;;;1.90;;
12224;SDS011;6175;50.956;11.064;2023-02-02T05:40:57;3.67;;;1.60;;
12224;SDS011;6175;50.956;11.064;2023-02-02T05:43:25;5.22;;;2.10;;
12224;SDS011;6175;50.956;11.064;2023-02-02T05:45:53;4.22;;;1.65;;
12224;SDS011;6175;50.956;11.064;2023-02-02T05:48:20;4.77;;;1.70;;
12224;SDS011;6175;50.956;11.064;2023-02-02T05:50:48;7.10;;;2.00;;
12224;SDS011;6175;50.956;11.064;2023-02-02T05:53:25;4.70;;;1.80;;
12224;SDS011;6175;50.956;11.064;2023-02-02T05:55:53;4.23;;;1.80;;
12224;SDS011;6175;50.956;11.064;2023-02-02T05:58:20;4.07;;;1.92;;
12224;SDS011;6175;50.956;11.064;2023-02-02T06:00:47;3.80;;;1.50;;
12224;SDS011;6175;50.956;11.064;2023-02-02T06:03:14;6.25;;;2.10;;
12224;SDS011;6175;50.956;11.064;2023-02-02T06:05:42;3.92;;;1.63;;
12224;SDS011;6175;50.956;11.064;2023-02-02T06:08:09;6.40;;;2.03;;
12224;SDS011;6175;50.956;11.064;2023-02-02T06:10:38;4.22;;;2.15;;
12224;SDS011;6175;50.956;11.064;2023-02-02T06:13:05;4.07;;;1.67;;
12224;SDS011;6175;50.956;11.064;2023-02-02T06:15:33;3.73;;;1.73;;
12224;SDS011;6175;50.956;11.064;2023-02-02T06:18:00;9.40;;;2.40;;
12224;SDS011;6175;50.956;11.064;2023-02-02T06:20:27;3.57;;;1.73;;
12224;SDS011;6175;50.956;11.064;2023-02-02T06:22:55;5.10;;;2.17;;
12224;SDS011;6175;50.956;11.064;2023-02-02T06:25:22;6.15;;;2.58;;
12224;SDS011;6175;50.956;11.064;2023-02-02T06:27:51;5.07;;;2.07;;
12224;SDS011;6175;50.956;11.064;2023-02-02T06:30:20;4.72;;;1.70;;
12224;SDS011;6175;50.956;11.064;2023-02-02T06:32:47;3.78;;;1.85;;
12224;SDS011;6175;50.956;11.064;2023-02-02T06:35:14;5.63;;;2.33;;
12224;SDS011;6175;50.956;11.064;2023-02-02T06:37:41;5.30;;;2.22;;
12224;SDS011;6175;50.956;11.064;2023-02-02T06:40:09;4.50;;;1.95;;
12224;SDS011;6175;50.956;11.064;2023-02-02T06:42:37;5.70;;;2.30;;
12224;SDS011;6175;50.956;11.064;2023-02-02T06:45:07;11.05;;;2.92;;
12224;SDS011;6175;50.956;11.064;2023-02-02T06:47:34;4.63;;;1.85;;
12224;SDS011;6175;50.956;11.064;2023-02-02T06:50:01;3.63;;;1.67;;
12224;SDS011;6175;50.956;11.064;2023-02-02T06:52:28;5.28;;;2.15;;
12224;SDS011;6175;50.956;11.064;2023-02-02T06:54:55;4.60;;;2.20;;
12224;SDS011;6175;50.956;11.064;2023-02-02T06:57:22;3.70;;;2.30;;
12224;SDS011;6175;50.956;11.064;2023-02-02T06:59:49;7.25;;;2.45;;
12224;SDS011;6175;50.956;11.064;2023-02-02T07:02:18;8.30;;;2.63;;
12224;SDS011;6175;50.956;11.064;2023-02-02T07:04:47;5.60;;;1.93;;
12224;SDS011;6175;50.956;11.064;2023-02-02T07:07:14;5.13;;;1.97;;
12224;SDS011;6175;50.956;11.064;2023-02-02T07:09:41;5.07;;;1.93;;
12224;SDS011;6175;50.956;11.064;2023-02-02T07:12:08;4.82;;;2.17;;
12224;SDS011;6175;50.956;11.064;2023-02-02T07:14:35;7.55;;;1.88;;
12224;SDS011;6175;50.956;11.064;2023-02-02T07:17:02;5.97;;;2.03;;
12224;SDS011;6175;50.956;11.064;2023-02-02T07:19:31;6.15;;;2.22;;
12224;SDS011;6175;50.956;11.064;2023-02-02T07:21:58;4.90;;;2.10;;
12224;SDS011;6175;50.956;11.064;2023-02-02T07:24:25;4.03;;;1.98;;
12224;SDS011;6175;50.956;11.064;2023-02-02T07:26:52;6.47;;;2.00;;
12224;SDS011;6175;50.956;11.064;2023-02-02T07:29:21;5.20;;;2.30;;
12224;SDS011;6175;50.956;11.064;2023-02-02T07:31:49;4.75;;;2.00;;
12224;SDS011;6175;50.956;11.064;2023-02-02T07:34:16;2.75;;;2.03;;
12224;SDS011;6175;50.956;11.064;2023-02-02T07:36:45;6.80;;;2.20;;
12224;SDS011;6175;50.956;11.064;2023-02-02T07:39:12;4.40;;;2.30;;
12224;SDS011;6175;50.956;11.064;2023-02-02T07:41:40;1.88;;;1.52;;
12224;SDS011;6175;50.956;11.064;2023-02-02T07:44:09;7.15;;;1.90;;
12224;SDS011;6175;50.956;11.064;2023-02-02T07:46:40;4.70;;;1.67;;
12224;SDS011;6175;50.956;11.064;2023-02-02T07:49:10;3.10;;;1.80;;
12224;SDS011;6175;50.956;11.064;2023-02-02T07:51:38;3.42;;;1.85;;
12224;SDS011;6175;50.956;11.064;2023-02-02T07:54:07;3.55;;;1.90;;
12224;SDS011;6175;50.956;11.064;2023-02-02T07:56:36;4.90;;;1.80;;
12224;SDS011;6175;50.956;11.064;2023-02-02T07:59:03;3.25;;;1.75;;
12224;SDS011;6175;50.956;11.064;2023-02-02T08:01:31;2.92;;;1.70;;
12224;SDS011;6175;50.956;11.064;2023-02-02T08:03:58;3.15;;;1.50;;
12224;SDS011;6175;50.956;11.064;2023-02-02T08:06:26;4.47;;;1.77;;
12224;SDS011;6175;50.956;11.064;2023-02-02T08:08:55;2.90;;;1.10;;
12224;SDS011;6175;50.956;11.064;2023-02-02T08:11:26;1.92;;;1.30;;
12224;SDS011;6175;50.956;11.064;2023-02-02T08:13:54;3.58;;;1.20;;
12224;SDS011;6175;50.956;11.064;2023-02-02T08:16:23;2.30;;;1.10;;
12224;SDS011;6175;50.956;11.064;2023-02-02T08:18:51;3.05;;;1.45;;
12224;SDS011;6175;50.956;11.064;2023-02-02T08:21:19;2.05;;;1.20;;
12224;SDS011;6175;50.956;11.064;2023-02-02T08:23:46;3.75;;;1.33;;
12224;SDS011;6175;50.956;11.064;2023-02-02T08:26:15;1.35;;;0.90;;
12224;SDS011;6175;50.956;11.064;2023-02-02T08:28:47;2.53;;;1.00;;
12224;SDS011;6175;50.956;11.064;2023-02-02T08:31:17;1.30;;;1.00;;
12224;SDS011;6175;50.956;11.064;2023-02-02T08:33:45;2.45;;;1.17;;
12224;SDS011;6175;50.956;11.064;2023-02-02T08:36:12;1.80;;;1.13;;
12224;SDS011;6175;50.956;11.064;2023-02-02T08:38:40;1.67;;;1.00;;
12224;SDS011;6175;50.956;11.064;2023-02-02T08:41:08;1.05;;;0.90;;
12224;SDS011;6175;50.956;11.064;2023-02-02T08:43:36;1.88;;;1.00;;
12224;SDS011;6175;50.956;11.064;2023-02-02T08:46:05;2.45;;;1.15;;
12224;SDS011;6175;50.956;11.064;2023-02-02T08:48:34;2.00;;;1.10;;
12224;SDS011;6175;50.956;11.064;2023-02-02T08:51:02;1.38;;;1.10;;
12224;SDS011;6175;50.956;11.064;2023-02-02T08:53:29;2.67;;;1.02;;
12224;SDS011;6175;50.956;11.064;2023-02-02T08:55:57;2.17;;;1.20;;
12224;SDS011;6175;50.956;11.064;2023-02-02T08:58:25;3.22;;;1.13;;
12224;SDS011;6175;50.956;11.064;2023-02-02T09:00:52;3.05;;;1.27;;
12224;SDS011;6175;50.956;11.064;2023-02-02T09:03:21;2.17;;;1.08;;
12224;SDS011;6175;50.956;11.064;2023-02-02T09:05:48;1.20;;;0.95;;
12224;SDS011;6175;50.956;11.064;2023-02-02T09:08:15;3.00;;;1.20;;
12224;SDS011;6175;50.956;11.064;2023-02-02T09:10:42;1.80;;;1.00;;
12224;SDS011;6175;50.956;11.064;2023-02-02T09:13:09;2.17;;;1.10;;
12224;SDS011;6175;50.956;11.064;2023-02-02T09:15:36;1.65;;;1.10;;
12224;SDS011;6175;50.956;11.064;2023-02-02T09:18:04;2.20;;;1.13;;
12224;SDS011;6175;50.956;11.064;2023-02-02T09:20:32;1.30;;;1.10;;
12224;SDS011;6175;50.956;11.064;2023-02-02T09:23:00;1.60;;;1.30;;
12224;SDS011;6175;50.956;11.064;2023-02-02T09:25:27;1.23;;;1.13;;
12224;SDS011;6175;50.956;11.064;2023-02-02T09:27:54;1.52;;;1.13;;
12224;SDS011;6175;50.956;11.064;2023-02-02T09:30:21;3.17;;;1.10;;
12224;SDS011;6175;50.956;11.064;2023-02-02T09:32:50;2.88;;;1.38;;
12224;SDS011;6175;50.956;11.064;2023-02-02T09:35:16;2.00;;;1.00;;
12224;SDS011;6175;50.956;11.064;2023-02-02T09:37:45;3.43;;;1.50;;
12224;SDS011;6175;50.956;11.064;2023-02-02T09:40:13;2.63;;;1.23;;
12224;SDS011;6175;50.956;11.064;2023-02-02T09:42:46;1.73;;;1.10;;
12224;SDS011;6175;50.956;11.064;2023-02-02T09:45:24;1.25;;;1.05;;
12224;SDS011;6175;50.956;11.064;2023-02-02T09:48:01;2.38;;;1.10;;
12224;SDS011;6175;50.956;11.064;2023-02-02T09:50:39;1.90;;;1.20;;
12224;SDS011;6175;50.956;11.064;2023-02-02T09:53:12;6.97;;;2.77;;
12224;SDS011;6175;50.956;11.064;2023-02-02T09:55:44;3.53;;;1.20;;
12224;SDS011;6175;50.956;11.064;2023-02-02T09:58:13;2.67;;;1.10;;
12224;SDS011;6175;50.956;11.064;2023-02-02T10:00:45;0.82;;;0.82;;
12224;SDS011;6175;50.956;11.064;2023-02-02T10:03:17;1.63;;;1.10;;
12224;SDS011;6175;50.956;11.064;2023-02-02T10:05:49;0.90;;;0.90;;
12224;SDS011;6175;50.956;11.064;2023-02-02T10:08:23;1.03;;;0.90;;
12224;SDS011;6175;50.956;11.064;2023-02-02T10:10:54;2.00;;;1.27;;
12224;SDS011;6175;50.956;11.064;2023-02-02T10:13:22;0.88;;;0.88;;
12224;SDS011;6175;50.956;11.064;2023-02-02T10:15:55;0.80;;;0.80;;
12224;SDS011;6175;50.956;11.064;2023-02-02T10:18:34;1.38;;;1.08;;
12224;SDS011;6175;50.956;11.064;2023-02-02T10:21:06;1.17;;;1.10;;
12224;SDS011;6175;50.956;11.064;2023-02-02T10:23:39;1.10;;;1.00;;
12224;SDS011;6175;50.956;11.064;2023-02-02T10:26:11;3.40;;;1.00;;
12224;SDS011;6175;50.956;11.064;2023-02-02T10:28:44;1.80;;;1.20;;
12224;SDS011;6175;50.956;11.064;2023-02-02T10:31:21;1.10;;;1.00;;
12224;SDS011;6175;50.956;11.064;2023-02-02T10:34:05;1.23;;;1.10;;
12224;SDS011;6175;50.956;11.064;2023-02-02T10:36:45;0.75;;;0.70;;
12224;SDS011;6175;50.956;11.064;2023-02-02T10:39:25;0.75;;;0.73;;
12224;SDS011;6175;50.956;11.064;2023-02-02T10:42:02;0.82;;;0.82;;
12224;SDS011;6175;50.956;11.064;2023-02-02T10:44:41;0.95;;;0.95;;
12224;SDS011;6175;50.956;11.064;2023-02-02T10:47:15;1.70;;;0.88;;
12224;SDS011;6175;50.956;11.064;2023-02-02T10:49:48;0.90;;;0.90;;
12224;SDS011;6175;50.956;11.064;2023-02-02T10:52:21;0.90;;;0.90;;
12224;SDS011;6175;50.956;11.064;2023-02-02T10:54:55;1.02;;;1.02;;
12224;SDS011;6175;50.956;11.064;2023-02-02T10:57:33;1.45;;;1.30;;
12224;SDS011;6175;50.956;11.064;2023-02-02T11:00:22;1.52;;;1.30;;
12224;SDS011;6175;50.956;11.064;2023-02-02T11:02:54;1.40;;;1.30;;
12224;SDS011;6175;50.956;11.064;2023-02-02T11:05:21;1.05;;;1.00;;
12224;SDS011;6175;50.956;11.064;2023-02-02T11:08:09;1.00;;;1.00;;
12224;SDS011;6175;50.956;11.064;2023-02-02T11:10:43;1.30;;;1.20;;
12224;SDS011;6175;50.956;11.064;2023-02-02T11:13:13;1.30;;;1.20;;
12224;SDS011;6175;50.956;11.064;2023-02-02T11:15:44;1.20;;;1.20;;
12224;SDS011;6175;50.956;11.064;2023-02-02T11:18:12;1.38;;;1.33;;
12224;SDS011;6175;50.956;11.064;2023-02-02T11:20:40;2.22;;;1.50;;
12224;SDS011;6175;50.956;11.064;2023-02-02T11:23:13;1.40;;;1.30;;
12224;SDS011;6175;50.956;11.064;2023-02-02T11:25:44;1.10;;;1.10;;
12224;SDS011;6175;50.956;11.064;2023-02-02T11:28:11;1.17;;;1.08;;
12224;SDS011;6175;50.956;11.064;2023-02-02T11:30:45;1.23;;;1.17;;
12224;SDS011;6175;50.956;11.064;2023-02-02T11:33:20;1.48;;;1.25;;
12224;SDS011;6175;50.956;11.064;2023-02-02T11:35:53;1.00;;;1.00;;
12224;SDS011;6175;50.956;11.064;2023-02-02T11:38:21;1.30;;;1.00;;
12224;SDS011;6175;50.956;11.064;2023-02-02T11:40:55;1.02;;;1.00;;
12224;SDS011;6175;50.956;11.064;2023-02-02T11:43:27;1.05;;;1.02;;
12224;SDS011;6175;50.956;11.064;2023-02-02T11:45:57;0.80;;;0.80;;
12224;SDS011;6175;50.956;11.064;2023-02-02T11:48:29;0.80;;;0.80;;
12224;SDS011;6175;50.956;11.064;2023-02-02T11:50:58;1.42;;;1.00;;
12224;SDS011;6175;50.956;11.064;2023-02-02T11:53:26;0.88;;;0.88;;
12224;SDS011;6175;50.956;11.064;2023-02-02T11:55:58;0.90;;;0.90;;
12224;SDS011;6175;50.956;11.064;2023-02-02T11:58:30;1.38;;;0.90;;
12224;SDS011;6175;50.956;11.064;2023-02-02T12:01:15;1.10;;;1.00;;
12224;SDS011;6175;50.956;11.064;2023-02-02T12:03:49;1.88;;;0.88;;
12224;SDS011;6175;50.956;11.064;2023-02-02T12:06:18;0.98;;;0.90;;
12224;SDS011;6175;50.956;11.064;2023-02-02T12:08:47;1.77;;;1.00;;
12224;SDS011;6175;50.956;11.064;2023-02-02T12:11:26;1.15;;;0.85;;
12224;SDS011;6175;50.956;11.064;2023-02-02T12:14:03;2.45;;;1.08;;
12224;SDS011;6175;50.956;11.064;2023-02-02T12:16:43;0.98;;;0.98;;
12224;SDS011;6175;50.956;11.064;2023-02-02T12:19:25;1.20;;;1.15;;
12224;SDS011;6175;50.956;11.064;2023-02-02T12:22:04;2.03;;;1.20;;
12224;SDS011;6175;50.956;11.064;2023-02-02T12:24:43;1.23;;;1.10;;
12224;SDS011;6175;50.956;11.064;2023-02-02T12:27:20;1.58;;;1.10;;
12224;SDS011;6175;50.956;11.064;2023-02-02T12:30:00;1.77;;;1.10;;
12224;SDS011;6175;50.956;11.064;2023-02-02T12:32:41;1.10;;;1.10;;
12224;SDS011;6175;50.956;11.064;2023-02-02T12:35:23;1.27;;;1.10;;
12224;SDS011;6175;50.956;11.064;2023-02-02T12:38:02;1.65;;;1.05;;
12224;SDS011;6175;50.956;11.064;2023-02-02T12:40:45;1.42;;;0.98;;
12224;SDS011;6175;50.956;11.064;2023-02-02T12:43:28;1.90;;;1.27;;
12224;SDS011;6175;50.956;11.064;2023-02-02T12:46:06;0.90;;;0.90;;
12224;SDS011;6175;50.956;11.064;2023-02-02T12:48:55;2.17;;;1.33;;
12224;SDS011;6175;50.956;11.064;2023-02-02T12:51:50;1.15;;;0.98;;
12224;SDS011;6175;50.956;11.064;2023-02-02T12:54:26;2.00;;;1.00;;
12224;SDS011;6175;50.956;11.064;2023-02-02T12:57:11;2.00;;;1.10;;
12224;SDS011;6175;50.956;11.064;2023-02-02T12:59:52;3.65;;;1.40;;
12224;SDS011;6175;50.956;11.064;2023-02-02T13:02:43;6.07;;;1.52;;
12224;SDS011;6175;50.956;11.064;2023-02-02T13:05:37;1.17;;;1.08;;
12224;SDS011;6175;50.956;11.064;2023-02-02T13:08:13;1.55;;;1.20;;
12224;SDS011;6175;50.956;11.064;2023-02-02T13:10:46;3.95;;;1.38;;
12224;SDS011;6175;50.956;11.064;2023-02-02T13:13:17;3.03;;;1.30;;
12224;SDS011;6175;50.956;11.064;2023-02-02T13:15:51;2.00;;;1.02;;
12224;SDS011;6175;50.956;11.064;2023-02-02T13:18:22;1.33;;;1.17;;
12224;SDS011;6175;50.956;11.064;2023-02-02T13:20:52;2.20;;;1.48;;
12224;SDS011;6175;50.956;11.064;2023-02-02T13:23:24;1.33;;;1.23;;
12224;SDS011;6175;50.956;11.064;2023-02-02T13:25:56;1.25;;;1.10;;
12224;SDS011;6175;50.956;11.064;2023-02-02T13:28:31;2.28;;;1.35;;
12224;SDS011;6175;50.956;11.064;2023-02-02T13:31:05;1.45;;;0.93;;
12224;SDS011;6175;50.956;11.064;2023-02-02T13:33:39;2.35;;;1.25;;
12224;SDS011;6175;50.956;11.064;2023-02-02T13:36:09;1.48;;;0.90;;
12224;SDS011;6175;50.956;11.064;2023-02-02T13:38:43;1.75;;;1.30;;
12224;SDS011;6175;50.956;11.064;2023-02-02T13:41:10;1.55;;;1.30;;
12224;SDS011;6175;50.956;11.064;2023-02-02T13:43:41;1.60;;;1.05;;
12224;SDS011;6175;50.956;11.064;2023-02-02T13:46:20;1.02;;;1.02;;
12224;SDS011;6175;50.956;11.064;2023-02-02T13:48:56;0.80;;;0.80;;
12224;SDS011;6175;50.956;11.064;2023-02-02T13:51:32;1.35;;;0.90;;
12224;SDS011;6175;50.956;11.064;2023-02-02T13:54:36;1.15;;;1.05;;
12224;SDS011;6175;50.956;11.064;2023-02-02T13:57:39;1.65;;;1.00;;
12224;SDS011;6175;50.956;11.064;2023-02-02T14:00:17;2.15;;;1.23;;
12224;SDS011;6175;50.956;11.064;2023-02-02T14:02:48;2.17;;;1.10;;
12224;SDS011;6175;50.956;11.064;2023-02-02T14:05:21;1.65;;;1.48;;
12224;SDS011;6175;50.956;11.064;2023-02-02T14:07:55;1.20;;;1.10;;
12224;SDS011;6175;50.956;11.064;2023-02-02T14:10:28;2.20;;;1.33;;
12224;SDS011;6175;50.956;11.064;2023-02-02T14:13:04;1.08;;;0.95;;
12224;SDS011;6175;50.956;11.064;2023-02-02T14:15:56;2.30;;;1.27;;
12224;SDS011;6175;50.956;11.064;2023-02-02T14:24:39;1.17;;;1.00;;
12224;SDS011;6175;50.956;11.064;2023-02-02T14:30:13;1.10;;;1.08;;
12224;SDS011;6175;50.956;11.064;2023-02-02T14:32:45;1.30;;;1.20;;
12224;SDS011;6175;50.956;11.064;2023-02-02T14:38:21;1.10;;;1.00;;
12224;SDS011;6175;50.956;11.064;2023-02-02T14:41:04;1.15;;;1.10;;
12224;SDS011;6175;50.956;11.064;2023-02-02T14:43:40;1.17;;;0.80;;
12224;SDS011;6175;50.956;11.064;2023-02-02T14:46:21;0.98;;;0.98;;
12224;SDS011;6175;50.956;11.064;2023-02-02T14:49:09;1.40;;;1.30;;
12224;SDS011;6175;50.956;11.064;2023-02-02T14:54:38;1.27;;;1.17;;
12224;SDS011;6175;50.956;11.064;2023-02-02T14:57:20;1.50;;;1.40;;
12224;SDS011;6175;50.956;11.064;2023-02-02T14:59:51;1.50;;;1.20;;
12224;SDS011;6175;50.956;11.064;2023-02-02T15:02:20;1.35;;;1.20;;
12224;SDS011;6175;50.956;11.064;2023-02-02T15:04:50;1.15;;;1.05;;
12224;SDS011;6175;50.956;11.064;2023-02-02T15:13:19;1.10;;;1.02;;
12224;SDS011;6175;50.956;11.064;2023-02-02T15:15:47;1.67;;;1.35;;
12224;SDS011;6175;50.956;11.064;2023-02-02T15:18:18;1.10;;;1.00;;
12224;SDS011;6175;50.956;11.064;2023-02-02T15:20:52;1.30;;;1.20;;
12224;SDS011;6175;50.956;11.064;2023-02-02T15:23:24;1.40;;;1.20;;
12224;SDS011;6175;50.956;11.064;2023-02-02T15:25:58;2.28;;;1.10;;
12224;SDS011;6175;50.956;11.064;2023-02-02T15:28:33;1.88;;;1.50;;
12224;SDS011;6175;50.956;11.064;2023-02-02T15:31:11;1.35;;;1.17;;
12224;SDS011;6175;50.956;11.064;2023-02-02T15:33:43;2.47;;;1.40;;
12224;SDS011;6175;50.956;11.064;2023-02-02T15:36:13;1.92;;;1.23;;
12224;SDS011;6175;50.956;11.064;2023-02-02T15:38:47;1.40;;;1.20;;